createdAt,value
2023-01-18T00:00:40.758Z,17.33
2023-01-18T00:03:09.530Z,11.73
2023-01-18T00:05:36.861Z,12.68
2023-01-18T00:08:03.975Z,12.90
2023-01-18T00:10:30.994Z,18.98
2023-01-18T00:12:58.654Z,15.52
2023-01-18T00:15:25.912Z,14.18
2023-01-18T00:17:52.968Z,16.95
2023-01-18T00:20:22.471Z,17.00
2023-01-18T00:22:50.418Z,14.10
2023-01-18T00:25:18.897Z,15.90
2023-01-18T00:27:48.697Z,17.98
2023-01-18T00:30:18.258Z,13.52
2023-01-18T00:32:45.523Z,14.85
2023-01-18T00:35:12.621Z,13.25
2023-01-18T00:37:39.825Z,12.63
2023-01-18T00:40:08.790Z,10.75
2023-01-18T00:42:35.798Z,11.95
2023-01-18T00:45:03.709Z,9.15
2023-01-18T00:47:30.792Z,18.17
2023-01-18T00:49:57.833Z,10.50
2023-01-18T00:52:24.827Z,11.60
2023-01-18T00:54:51.842Z,8.85
2023-01-18T00:57:18.925Z,10.73
2023-01-18T00:59:45.956Z,8.38
2023-01-18T01:02:14.702Z,8.20
2023-01-18T01:04:41.774Z,14.50
2023-01-18T01:07:08.810Z,11.60
2023-01-18T01:09:35.844Z,11.05
2023-01-18T01:12:02.953Z,10.15
2023-01-18T01:14:30.508Z,9.00
2023-01-18T01:16:57.537Z,8.95
2023-01-18T01:19:24.619Z,13.07
2023-01-18T01:21:51.761Z,15.57
2023-01-18T01:24:18.850Z,14.35
2023-01-18T01:26:46.075Z,10.30
2023-01-18T01:29:13.119Z,14.07
2023-01-18T01:31:40.111Z,15.52
2023-01-18T01:34:07.189Z,12.38
2023-01-18T01:36:34.378Z,9.55
2023-01-18T01:39:01.551Z,8.27
2023-01-18T01:41:33.924Z,14.05
2023-01-18T01:44:24.025Z,10.38
2023-01-18T01:46:55.301Z,10.65
2023-01-18T01:49:29.415Z,9.90
2023-01-18T01:52:05.489Z,7.72
2023-01-18T01:54:35.568Z,8.07
2023-01-18T01:57:14.999Z,8.02
2023-01-18T01:59:56.959Z,11.48
2023-01-18T02:04:52.699Z,10.25
2023-01-18T02:07:24.294Z,11.10
2023-01-18T02:09:52.297Z,11.85
2023-01-18T02:12:19.987Z,13.88
2023-01-18T02:14:47.176Z,16.98
2023-01-18T02:17:26.386Z,9.88
2023-01-18T02:20:17.705Z,11.27
2023-01-18T02:22:47.700Z,12.80
2023-01-18T02:25:20.904Z,12.20
2023-01-18T02:28:12.104Z,7.75
2023-01-18T02:31:16.191Z,10.63
2023-01-18T02:33:56.341Z,5.75
2023-01-18T02:36:36.565Z,7.15
2023-01-18T02:39:14.459Z,6.30
2023-01-18T02:41:50.155Z,7.00
2023-01-18T02:44:24.187Z,6.88
2023-01-18T02:46:51.336Z,6.00
2023-01-18T02:49:22.520Z,7.15
2023-01-18T02:51:49.708Z,7.00
2023-01-18T02:54:17.024Z,8.05
2023-01-18T02:56:49.444Z,8.63
2023-01-18T02:59:19.403Z,7.32
2023-01-18T03:02:01.066Z,10.15
2023-01-18T03:04:33.813Z,13.45
2023-01-18T03:07:12.561Z,11.73
2023-01-18T03:09:41.474Z,8.65
2023-01-18T03:12:17.590Z,9.55
2023-01-18T03:15:10.882Z,11.10
2023-01-18T03:17:43.989Z,9.82
2023-01-18T03:20:18.142Z,9.85
2023-01-18T03:22:55.721Z,9.50
2023-01-18T03:25:31.202Z,7.60
2023-01-18T03:28:03.817Z,9.45
2023-01-18T03:30:33.031Z,6.75
2023-01-18T03:33:00.621Z,10.60
2023-01-18T03:35:30.694Z,8.05
2023-01-18T03:37:59.229Z,10.02
2023-01-18T03:40:29.274Z,9.65
2023-01-18T03:43:09.140Z,8.95
2023-01-18T03:45:41.954Z,6.53
2023-01-18T03:48:10.070Z,5.70
2023-01-18T03:51:19.706Z,7.18
2023-01-18T03:54:21.589Z,9.10
2023-01-18T03:57:02.173Z,7.40
2023-01-18T03:59:34.720Z,8.63
2023-01-18T04:02:03.995Z,7.10
2023-01-18T04:04:31.064Z,8.23
2023-01-18T04:06:58.395Z,6.65
2023-01-18T04:09:26.579Z,6.45
2023-01-18T04:11:53.811Z,6.07
2023-01-18T04:14:20.934Z,6.15
2023-01-18T04:16:47.977Z,8.02
2023-01-18T04:19:15.029Z,6.80
2023-01-18T04:21:42.083Z,7.47
2023-01-18T04:24:09.449Z,7.15
2023-01-18T04:26:37.031Z,6.25
2023-01-18T04:29:04.800Z,5.15
2023-01-18T04:31:31.919Z,6.13
2023-01-18T04:33:58.964Z,6.47
2023-01-18T04:36:26.326Z,8.50
2023-01-18T04:38:54.485Z,11.23
2023-01-18T04:41:22.366Z,9.15
2023-01-18T04:43:49.445Z,6.63
2023-01-18T04:46:16.757Z,5.30
2023-01-18T04:48:43.842Z,8.35
2023-01-18T04:51:12.636Z,12.15
2023-01-18T04:53:41.889Z,11.25
2023-01-18T04:56:09.929Z,8.68
2023-01-18T04:58:37.578Z,8.52
2023-01-18T05:01:06.522Z,11.95
2023-01-18T05:03:33.612Z,6.57
2023-01-18T05:06:00.647Z,7.30
2023-01-18T05:08:27.678Z,6.18
2023-01-18T05:11:01.637Z,6.05
2023-01-18T05:13:28.730Z,8.00
2023-01-18T05:15:56.984Z,10.18
2023-01-18T05:18:24.040Z,6.05
2023-01-18T05:20:51.034Z,7.82
2023-01-18T05:23:18.214Z,10.88
2023-01-18T05:25:45.246Z,9.77
2023-01-18T05:28:12.271Z,10.82
2023-01-18T05:30:41.873Z,12.75
2023-01-18T05:33:09.461Z,18.30
2023-01-18T05:35:36.820Z,24.15
2023-01-18T05:38:03.821Z,14.50
2023-01-18T05:40:30.882Z,13.95
2023-01-18T05:42:58.106Z,17.17
2023-01-18T05:45:25.339Z,16.95
2023-01-18T05:47:54.301Z,12.10
2023-01-18T05:50:21.354Z,9.15
2023-01-18T05:52:48.353Z,10.07
2023-01-18T05:55:15.522Z,7.68
2023-01-18T05:57:42.517Z,9.75
2023-01-18T06:00:10.321Z,9.10
2023-01-18T06:02:39.940Z,10.60
2023-01-18T06:05:07.292Z,10.60
2023-01-18T06:07:34.300Z,10.32
2023-01-18T06:10:01.368Z,11.30
2023-01-18T06:12:28.403Z,14.70
2023-01-18T06:14:56.767Z,11.18
2023-01-18T06:17:23.890Z,11.57
2023-01-18T06:19:50.955Z,9.98
2023-01-18T06:22:18.025Z,11.60
2023-01-18T06:24:51.627Z,13.95
2023-01-18T06:27:18.754Z,16.92
2023-01-18T06:29:45.757Z,14.90
2023-01-18T06:32:12.807Z,14.57
2023-01-18T06:34:39.835Z,11.20
2023-01-18T06:37:06.976Z,18.52
2023-01-18T06:39:34.189Z,13.52
2023-01-18T06:42:01.827Z,19.10
2023-01-18T06:44:28.827Z,16.17
2023-01-18T06:46:55.874Z,15.85
2023-01-18T06:49:23.010Z,14.63
2023-01-18T06:51:50.054Z,20.10
2023-01-18T06:54:17.110Z,21.15
2023-01-18T06:56:44.220Z,16.77
2023-01-18T06:59:11.278Z,18.38
2023-01-18T07:01:38.436Z,17.48
2023-01-18T07:04:05.584Z,17.90
2023-01-18T07:06:32.699Z,16.80
2023-01-18T07:08:59.691Z,13.48
2023-01-18T07:11:26.752Z,14.98
2023-01-18T07:13:53.827Z,18.45
2023-01-18T07:16:21.088Z,13.77
2023-01-18T07:18:49.079Z,15.85
2023-01-18T07:21:17.685Z,12.90
2023-01-18T07:23:44.912Z,15.13
2023-01-18T07:26:15.158Z,16.67
2023-01-18T07:28:43.580Z,14.27
2023-01-18T07:31:10.826Z,13.05
2023-01-18T07:33:37.920Z,13.43
2023-01-18T07:36:05.854Z,14.55
2023-01-18T07:38:33.845Z,15.88
2023-01-18T07:41:02.520Z,16.08
2023-01-18T07:43:31.974Z,15.30
2023-01-18T07:46:00.608Z,14.13
2023-01-18T07:48:28.788Z,12.70
2023-01-18T07:50:57.526Z,11.90
2023-01-18T07:53:25.825Z,14.43
2023-01-18T07:55:52.997Z,15.93
2023-01-18T07:58:20.726Z,11.95
2023-01-18T08:00:47.817Z,17.42
2023-01-18T08:03:16.818Z,13.90
2023-01-18T08:05:44.910Z,12.70
2023-01-18T08:08:14.538Z,16.55
2023-01-18T08:10:42.317Z,16.95
2023-01-18T08:13:09.999Z,17.33
2023-01-18T08:15:38.676Z,19.85
2023-01-18T08:18:07.326Z,26.00
2023-01-18T08:20:34.640Z,17.98
2023-01-18T08:23:01.827Z,18.50
2023-01-18T08:25:30.266Z,18.23
2023-01-18T08:27:58.351Z,16.83
2023-01-18T08:30:29.990Z,18.05
2023-01-18T08:32:59.904Z,15.57
2023-01-18T08:35:33.099Z,20.42
2023-01-18T08:38:01.515Z,19.20
2023-01-18T08:40:29.584Z,15.68
2023-01-18T08:43:01.471Z,16.17
2023-01-18T08:45:29.318Z,14.65
2023-01-18T08:48:01.739Z,17.05
2023-01-18T08:50:30.678Z,17.95
2023-01-18T08:52:58.305Z,15.75
2023-01-18T08:55:27.221Z,18.00
2023-01-18T08:57:54.374Z,22.48
2023-01-18T09:00:21.798Z,28.38
2023-01-18T09:02:49.296Z,22.20
2023-01-18T09:05:16.670Z,24.63
2023-01-18T09:07:43.714Z,22.77
2023-01-18T09:10:11.507Z,23.58
2023-01-18T09:12:38.781Z,18.42
2023-01-18T09:15:06.529Z,17.45
2023-01-18T09:17:33.630Z,17.08
2023-01-18T09:20:00.648Z,20.83
2023-01-18T09:22:27.659Z,10.98
2023-01-18T09:24:54.662Z,14.98
2023-01-18T09:27:21.699Z,14.98
2023-01-18T09:29:48.817Z,16.52
2023-01-18T09:32:15.974Z,12.55
2023-01-18T09:34:43.045Z,11.98
2023-01-18T09:37:10.031Z,12.63
2023-01-18T09:39:50.784Z,13.43
2023-01-18T09:42:24.074Z,12.40
2023-01-18T09:44:56.908Z,12.98
2023-01-18T09:47:27.988Z,12.82
2023-01-18T09:49:59.871Z,13.90
2023-01-18T09:55:28.467Z,16.05
2023-01-18T09:58:07.475Z,16.25
2023-01-18T10:00:40.229Z,15.73
2023-01-18T10:03:13.806Z,15.73
2023-01-18T10:05:51.917Z,20.55
2023-01-18T10:08:25.216Z,73.50
2023-01-18T10:11:02.603Z,41.55
2023-01-18T10:13:46.307Z,42.45
2023-01-18T10:16:14.742Z,33.35
2023-01-18T10:18:47.641Z,24.45
2023-01-18T10:21:29.509Z,14.82
2023-01-18T10:24:02.463Z,16.48
2023-01-18T10:26:31.533Z,14.50
2023-01-18T10:29:37.530Z,10.77
2023-01-18T10:32:10.688Z,12.45
2023-01-18T10:34:44.394Z,18.42
2023-01-18T10:37:25.515Z,13.30
2023-01-18T10:40:00.039Z,12.48
2023-01-18T10:42:35.829Z,11.13
2023-01-18T10:45:03.528Z,9.32
2023-01-18T10:47:30.586Z,8.40
2023-01-18T10:49:59.671Z,9.48
2023-01-18T10:52:32.131Z,10.57
2023-01-18T10:55:01.704Z,12.90
2023-01-18T10:57:35.081Z,14.35
2023-01-18T11:00:04.053Z,13.88
2023-01-18T11:02:35.787Z,12.27
2023-01-18T11:07:42.670Z,9.20
2023-01-18T11:10:27.999Z,6.60
2023-01-18T11:12:55.162Z,8.05
2023-01-18T11:15:25.520Z,8.82
2023-01-18T11:18:01.585Z,7.38
2023-01-18T11:20:44.089Z,6.38
2023-01-18T11:23:16.728Z,4.78
2023-01-18T11:25:53.848Z,7.43
2023-01-18T11:28:43.689Z,7.35
2023-01-18T11:31:15.464Z,6.63
2023-01-18T11:33:51.917Z,14.18
2023-01-18T11:36:32.223Z,12.90
2023-01-18T11:39:23.211Z,10.18
2023-01-18T11:41:51.285Z,5.55
2023-01-18T11:44:34.830Z,5.65
2023-01-18T11:47:05.407Z,7.50
2023-01-18T11:49:44.231Z,7.70
2023-01-18T11:52:11.236Z,5.82
2023-01-18T11:54:54.579Z,7.13
2023-01-18T11:57:21.754Z,6.53
2023-01-18T11:59:49.170Z,6.80
2023-01-18T12:02:39.625Z,6.57
2023-01-18T12:05:16.780Z,4.82
2023-01-18T12:08:09.831Z,6.78
2023-01-18T12:11:14.384Z,3.17
2023-01-18T12:13:45.773Z,9.20
2023-01-18T12:16:51.849Z,8.30
2023-01-18T12:19:37.664Z,6.15
2023-01-18T12:22:29.721Z,4.65
2023-01-18T12:28:08.543Z,10.15
2023-01-18T12:31:15.115Z,4.43
2023-01-18T12:34:00.811Z,7.20
2023-01-18T12:36:50.151Z,6.93
2023-01-18T12:39:39.027Z,10.93
2023-01-18T12:42:19.489Z,7.05
2023-01-18T12:45:10.037Z,14.07
2023-01-18T12:47:42.868Z,6.65
2023-01-18T12:50:24.523Z,8.98
2023-01-18T12:53:00.018Z,9.18
2023-01-18T12:55:31.649Z,10.52
2023-01-18T12:58:01.363Z,10.48
2023-01-18T13:00:37.347Z,10.48
2023-01-18T13:03:17.829Z,11.88
2023-01-18T13:05:53.619Z,8.60
2023-01-18T13:08:51.428Z,7.10
2023-01-18T13:11:23.773Z,6.40
2023-01-18T13:14:02.253Z,9.95
2023-01-18T13:16:40.202Z,9.48
2023-01-18T13:19:12.260Z,9.25
2023-01-18T13:21:59.483Z,8.15
2023-01-18T13:24:45.973Z,9.32
2023-01-18T13:27:15.790Z,6.10
2023-01-18T13:29:43.592Z,10.93
2023-01-18T13:32:33.201Z,8.32
2023-01-18T13:35:19.060Z,8.52
2023-01-18T13:37:55.941Z,10.43
2023-01-18T13:40:36.829Z,11.25
2023-01-18T13:43:24.881Z,9.10
2023-01-18T13:46:22.808Z,12.38
2023-01-18T13:48:59.912Z,13.25
2023-01-18T13:51:30.053Z,8.95
2023-01-18T13:53:57.196Z,10.27
2023-01-18T13:56:26.777Z,11.07
2023-01-18T14:01:36.122Z,12.70
2023-01-18T14:04:23.994Z,11.10
2023-01-18T14:06:53.090Z,8.50
2023-01-18T14:09:35.137Z,11.45
2023-01-18T14:12:02.592Z,9.82
2023-01-18T14:14:34.103Z,11.02
2023-01-18T14:17:01.043Z,12.77
2023-01-18T14:19:29.324Z,10.32
2023-01-18T14:22:31.400Z,15.75
2023-01-18T14:25:07.513Z,13.45
2023-01-18T14:27:42.341Z,8.50
2023-01-18T14:30:25.686Z,10.07
2023-01-18T14:33:12.794Z,7.32
2023-01-18T14:35:54.075Z,5.10
2023-01-18T14:38:21.561Z,10.02
2023-01-18T14:40:51.671Z,12.23
2023-01-18T14:43:26.400Z,9.50
2023-01-18T14:46:06.525Z,14.02
2023-01-18T14:48:40.659Z,10.70
2023-01-18T14:51:07.768Z,6.65
2023-01-18T14:53:44.069Z,10.95
2023-01-18T14:56:14.333Z,4.55
2023-01-18T14:58:51.847Z,5.22
2023-01-18T15:01:33.096Z,6.63
2023-01-18T15:04:02.849Z,10.45
2023-01-18T15:06:50.045Z,5.30
2023-01-18T15:09:20.505Z,7.90
2023-01-18T15:11:48.766Z,5.50
2023-01-18T15:14:26.502Z,6.38
2023-01-18T15:16:56.921Z,11.23
2023-01-18T15:19:43.961Z,6.45
2023-01-18T15:22:13.446Z,5.97
2023-01-18T15:24:42.097Z,7.28
2023-01-18T15:27:17.383Z,7.90
2023-01-18T15:29:53.207Z,5.22
2023-01-18T15:32:28.677Z,9.88
2023-01-18T15:34:57.045Z,5.28
2023-01-18T15:37:26.907Z,8.23
2023-01-18T15:39:56.846Z,8.60
2023-01-18T15:42:31.826Z,6.22
2023-01-18T15:44:59.947Z,6.03
2023-01-18T15:47:34.504Z,4.55
2023-01-18T15:50:03.797Z,8.93
2023-01-18T15:52:46.448Z,9.98
2023-01-18T15:55:24.067Z,7.78
2023-01-18T15:58:07.483Z,9.07
2023-01-18T16:00:43.916Z,12.98
2023-01-18T16:03:29.039Z,8.43
2023-01-18T16:06:06.408Z,8.57
2023-01-18T16:08:35.712Z,12.13
2023-01-18T16:11:02.845Z,9.55
2023-01-18T16:13:31.132Z,16.35
2023-01-18T16:16:22.888Z,9.23
2023-01-18T16:19:04.187Z,8.88
2023-01-18T16:21:46.175Z,9.93
2023-01-18T16:26:43.693Z,10.32
2023-01-18T16:29:11.383Z,9.77
2023-01-18T16:31:42.669Z,13.98
2023-01-18T16:34:24.994Z,10.30
2023-01-18T16:36:53.422Z,10.30
2023-01-18T16:39:21.102Z,12.70
2023-01-18T16:41:56.085Z,15.20
2023-01-18T16:44:23.550Z,7.65
2023-01-18T16:46:50.590Z,28.20
2023-01-18T16:49:17.662Z,30.15
2023-01-18T16:51:44.651Z,11.57
2023-01-18T16:54:11.656Z,18.73
2023-01-18T16:56:38.619Z,12.93
2023-01-18T16:59:19.314Z,9.07
2023-01-18T17:01:46.877Z,12.60
2023-01-18T17:04:15.864Z,14.15
2023-01-18T17:06:44.360Z,11.30
2023-01-18T17:09:19.665Z,35.05
2023-01-18T17:11:47.498Z,14.35
2023-01-18T17:14:14.804Z,15.32
2023-01-18T17:16:42.708Z,11.95
2023-01-18T17:19:18.971Z,10.55
2023-01-18T17:21:47.927Z,9.88
2023-01-18T17:24:17.118Z,12.45
2023-01-18T17:26:44.417Z,13.98
2023-01-18T17:29:17.117Z,11.43
2023-01-18T17:31:52.281Z,12.95
2023-01-18T17:34:27.972Z,15.95
2023-01-18T17:36:59.402Z,14.75
2023-01-18T17:39:37.041Z,16.13
2023-01-18T17:42:12.527Z,10.68
2023-01-18T17:44:43.597Z,13.63
2023-01-18T17:47:11.384Z,14.48
2023-01-18T17:49:38.480Z,13.43
2023-01-18T17:52:05.605Z,13.02
2023-01-18T17:54:32.819Z,18.45
2023-01-18T17:56:59.933Z,20.20
2023-01-18T17:59:27.437Z,26.27
2023-01-18T18:01:54.482Z,18.58
2023-01-18T18:04:21.512Z,20.30
2023-01-18T18:06:54.175Z,27.65
2023-01-18T18:09:21.624Z,22.13
2023-01-18T18:11:48.682Z,22.95
2023-01-18T18:14:15.763Z,17.38
2023-01-18T18:16:44.008Z,21.00
2023-01-18T18:19:11.905Z,21.73
2023-01-18T18:21:38.943Z,14.63
2023-01-18T18:24:06.253Z,17.92
2023-01-18T18:26:33.350Z,16.23
2023-01-18T18:29:00.411Z,21.10
2023-01-18T18:31:27.510Z,30.23
2023-01-18T18:33:54.547Z,16.65
2023-01-18T18:36:21.674Z,20.98
2023-01-18T18:38:48.776Z,22.63
2023-01-18T18:41:16.007Z,22.50
2023-01-18T18:43:43.007Z,23.35
2023-01-18T18:46:10.083Z,25.42
2023-01-18T18:48:37.224Z,28.20
2023-01-18T18:51:04.331Z,24.65
2023-01-18T18:53:38.287Z,20.05
2023-01-18T18:56:06.951Z,18.65
2023-01-18T18:58:33.945Z,20.42
2023-01-18T19:01:01.190Z,27.95
2023-01-18T19:03:28.501Z,21.67
2023-01-18T19:05:55.504Z,25.23
2023-01-18T19:08:23.021Z,23.73
2023-01-18T19:10:50.867Z,19.80
2023-01-18T19:13:18.678Z,25.52
2023-01-18T19:15:46.776Z,22.67
2023-01-18T19:18:15.178Z,31.95
2023-01-18T19:20:42.491Z,26.10
2023-01-18T19:23:11.253Z,24.65
2023-01-18T19:25:39.029Z,22.77
2023-01-18T19:28:06.563Z,27.67
2023-01-18T19:30:33.649Z,25.15
2023-01-18T19:33:01.294Z,28.25
2023-01-18T19:35:28.657Z,21.95
2023-01-18T19:37:55.679Z,19.98
2023-01-18T19:40:22.676Z,18.48
2023-01-18T19:42:50.149Z,24.35
2023-01-18T19:45:27.323Z,19.55
2023-01-18T19:47:56.679Z,22.92
2023-01-18T19:50:24.511Z,18.15
2023-01-18T19:52:51.624Z,23.45
2023-01-18T19:55:19.022Z,20.10
2023-01-18T19:57:46.118Z,20.10
2023-01-18T20:00:13.674Z,18.20
2023-01-18T20:02:41.318Z,17.90
2023-01-18T20:05:08.629Z,24.20
2023-01-18T20:07:38.772Z,27.05
2023-01-18T20:10:07.093Z,28.20
2023-01-18T20:12:34.148Z,16.13
2023-01-18T20:15:01.233Z,18.67
2023-01-18T20:17:28.345Z,17.90
2023-01-18T20:19:55.462Z,20.63
2023-01-18T20:22:22.995Z,19.17
2023-01-18T20:24:50.056Z,38.28
2023-01-18T20:27:17.397Z,18.50
2023-01-18T20:29:44.755Z,14.80
2023-01-18T20:32:16.593Z,13.93
2023-01-18T20:34:46.088Z,18.08
2023-01-18T20:37:13.921Z,23.10
2023-01-18T20:39:41.037Z,15.63
2023-01-18T20:42:08.505Z,20.55
2023-01-18T20:44:35.662Z,22.75
2023-01-18T20:47:03.588Z,21.27
2023-01-18T20:49:37.694Z,21.83
2023-01-18T20:52:07.676Z,20.40
2023-01-18T20:54:36.176Z,18.02
2023-01-18T20:57:04.942Z,21.55
2023-01-18T20:59:32.266Z,26.00
2023-01-18T21:01:59.570Z,24.55
2023-01-18T21:04:27.026Z,32.92
2023-01-18T21:06:54.584Z,30.35
2023-01-18T21:09:21.704Z,26.55
2023-01-18T21:11:48.801Z,30.88
2023-01-18T21:14:15.969Z,26.75
2023-01-18T21:16:43.432Z,28.35
2023-01-18T21:19:10.526Z,25.77
2023-01-18T21:21:37.549Z,30.92
2023-01-18T21:24:05.016Z,37.28
2023-01-18T21:26:32.150Z,23.65
2023-01-18T21:28:59.298Z,27.45
2023-01-18T21:31:26.533Z,24.05
2023-01-18T21:33:54.604Z,27.70
2023-01-18T21:36:22.097Z,23.75
2023-01-18T21:38:49.689Z,23.92
2023-01-18T21:41:16.691Z,29.88
2023-01-18T21:43:43.707Z,25.35
2023-01-18T21:46:11.011Z,24.60
2023-01-18T21:48:38.165Z,26.83
2023-01-18T21:51:05.735Z,23.35
2023-01-18T21:53:32.820Z,32.05
2023-01-18T21:56:00.299Z,29.30
2023-01-18T21:58:27.423Z,26.30
2023-01-18T22:00:54.579Z,26.40
2023-01-18T22:03:21.708Z,30.88
2023-01-18T22:05:48.763Z,28.95
2023-01-18T22:08:15.809Z,20.73
2023-01-18T22:10:46.381Z,23.88
2023-01-18T22:13:13.477Z,23.55
2023-01-18T22:15:40.763Z,21.60
2023-01-18T22:18:07.841Z,24.52
2023-01-18T22:20:34.892Z,23.65
2023-01-18T22:23:01.891Z,17.80
2023-01-18T22:25:28.885Z,20.50
2023-01-18T22:27:55.926Z,26.02
2023-01-18T22:30:22.987Z,26.88
2023-01-18T22:32:49.987Z,26.80
2023-01-18T22:35:16.989Z,33.95
2023-01-18T22:37:44.036Z,29.88
2023-01-18T22:40:11.495Z,49.75
2023-01-18T22:42:38.508Z,45.85
2023-01-18T22:45:06.136Z,34.92
2023-01-18T22:47:33.143Z,37.65
2023-01-18T22:50:00.206Z,35.15
2023-01-18T22:52:27.313Z,35.42
2023-01-18T22:54:54.286Z,33.38
2023-01-18T22:57:21.294Z,36.85
2023-01-18T22:59:48.270Z,28.38
2023-01-18T23:02:15.360Z,33.75
2023-01-18T23:04:42.374Z,33.17
2023-01-18T23:07:09.406Z,30.08
2023-01-18T23:09:36.412Z,29.92
2023-01-18T23:12:03.588Z,34.20
2023-01-18T23:14:30.643Z,37.53
2023-01-18T23:16:57.849Z,32.25
2023-01-18T23:19:25.899Z,33.28
2023-01-18T23:21:54.028Z,27.08
2023-01-18T23:24:22.704Z,27.65
2023-01-18T23:26:50.303Z,27.00
2023-01-18T23:29:17.630Z,25.52
2023-01-18T23:31:44.738Z,26.27
2023-01-18T23:34:11.839Z,24.42
2023-01-18T23:36:38.921Z,21.45
2023-01-18T23:39:05.987Z,24.20
2023-01-18T23:41:33.015Z,25.90
2023-01-18T23:44:00.165Z,22.67
2023-01-18T23:46:27.190Z,25.00
2023-01-18T23:48:54.224Z,26.92
2023-01-18T23:51:21.228Z,20.42
2023-01-18T23:53:48.519Z,18.27
2023-01-18T23:56:15.556Z,23.27
2023-01-18T23:58:42.533Z,20.48
